createdAt,value
2024-04-11T00:08:20.536Z,7.22
2024-04-11T00:13:22.443Z,7.08
2024-04-11T00:18:26.315Z,7.06
2024-04-11T00:23:28.352Z,7.07
2024-04-11T00:28:30.929Z,6.89
2024-04-11T00:33:32.918Z,6.89
2024-04-11T00:38:34.997Z,6.79
2024-04-11T00:43:36.912Z,6.82
2024-04-11T00:48:40.860Z,6.81
2024-04-11T00:53:43.771Z,6.70
2024-04-11T00:58:45.712Z,6.66
2024-04-11T01:03:48.132Z,6.61
2024-04-11T01:08:52.444Z,6.66
2024-04-11T01:13:54.637Z,6.76
2024-04-11T01:18:57.648Z,6.58
2024-04-11T01:24:01.464Z,6.37
2024-04-11T01:29:03.776Z,6.17
2024-04-11T01:34:08.640Z,6.13
2024-04-11T01:39:12.881Z,6.10
2024-04-11T01:44:15.426Z,6.31
2024-04-11T01:49:18.160Z,6.21
2024-04-11T01:54:20.768Z,6.36
2024-04-11T01:59:22.831Z,6.33
2024-04-11T02:04:24.909Z,6.38
2024-04-11T02:09:32.831Z,6.17
2024-04-11T02:14:34.829Z,6.00
2024-04-11T02:19:38.577Z,5.95
2024-04-11T02:24:40.462Z,5.77
2024-04-11T02:29:42.356Z,5.82
2024-04-11T02:34:44.498Z,5.87
2024-04-11T02:39:47.169Z,5.83
2024-04-11T02:44:52.445Z,5.67
2024-04-11T02:49:55.330Z,5.48
2024-04-11T02:54:57.175Z,5.67
2024-04-11T03:00:00.517Z,5.53
2024-04-11T03:05:02.890Z,5.36
2024-04-11T03:10:05.021Z,5.40
2024-04-11T03:15:10.670Z,5.34
2024-04-11T03:20:12.830Z,5.19
2024-04-11T03:25:14.787Z,5.60
2024-04-11T03:30:16.730Z,5.34
2024-04-11T03:35:18.550Z,5.19
2024-04-11T03:40:21.036Z,5.26
2024-04-11T03:45:28.090Z,5.29
2024-04-11T03:50:30.999Z,5.18
2024-04-11T03:55:46.107Z,5.11
2024-04-11T04:00:49.520Z,4.88
2024-04-11T04:05:52.438Z,5.18
2024-04-11T04:10:54.286Z,5.31
2024-04-11T04:15:59.176Z,5.05
2024-04-11T04:21:01.638Z,4.98
2024-04-11T04:26:09.584Z,4.93
2024-04-11T04:31:18.294Z,4.95
2024-04-11T04:36:28.676Z,5.00
2024-04-11T04:41:31.039Z,5.03
2024-04-11T04:46:34.116Z,5.05
2024-04-11T04:51:37.827Z,5.05
2024-04-11T04:56:43.892Z,5.12
2024-04-11T05:01:47.016Z,5.10
2024-04-11T05:06:50.897Z,5.20
2024-04-11T05:11:52.954Z,5.40
2024-04-11T05:16:54.846Z,5.45
2024-04-11T05:21:56.709Z,5.57
2024-04-11T05:27:00.056Z,5.79
2024-04-11T05:32:03.260Z,6.30
2024-04-11T05:37:07.190Z,6.29
2024-04-11T05:42:10.816Z,6.62
2024-04-11T05:47:12.870Z,6.71
2024-04-11T05:52:14.813Z,6.77
2024-04-11T05:57:16.715Z,6.93
2024-04-11T06:02:19.461Z,7.14
2024-04-11T06:07:22.485Z,8.01
2024-04-11T06:12:24.393Z,8.51
2024-04-11T06:17:29.331Z,9.05
2024-04-11T06:22:34.162Z,9.15
2024-04-11T06:27:37.886Z,9.10
2024-04-11T06:32:39.876Z,9.24
2024-04-11T06:37:45.560Z,9.72
2024-04-11T06:42:51.447Z,9.79
2024-04-11T06:47:57.316Z,9.71
2024-04-11T06:53:00.477Z,10.00
2024-04-11T06:58:07.602Z,10.08
2024-04-11T07:03:18.380Z,10.83
2024-04-11T07:08:30.702Z,10.65
2024-04-11T07:13:34.517Z,10.62
2024-04-11T07:18:46.693Z,10.88
2024-04-11T07:23:55.092Z,11.09
2024-04-11T07:29:01.509Z,11.09
2024-04-11T07:34:07.487Z,11.25
2024-04-11T07:39:15.177Z,11.72
2024-04-11T07:44:19.955Z,11.98
2024-04-11T07:49:25.821Z,12.32
2024-04-11T07:54:37.464Z,12.54
2024-04-11T07:59:48.183Z,12.85
2024-04-11T08:04:50.686Z,13.26
2024-04-11T08:09:57.477Z,13.76
2024-04-11T08:14:59.786Z,14.44
2024-04-11T08:20:01.933Z,14.64
2024-04-11T08:25:04.055Z,14.97
2024-04-11T08:30:13.373Z,15.22
2024-04-11T08:35:18.939Z,15.51
2024-04-11T08:40:21.759Z,15.60
2024-04-11T08:45:28.132Z,15.84
2024-04-11T08:50:31.508Z,16.30
2024-04-11T08:55:33.898Z,16.18
2024-04-11T09:00:41.624Z,16.42
2024-04-11T09:05:47.815Z,16.45
2024-04-11T09:10:50.421Z,16.48
2024-04-11T09:16:02.032Z,16.48
2024-04-11T09:21:07.665Z,16.94
2024-04-11T09:26:11.907Z,17.08
2024-04-11T09:31:13.843Z,16.94
2024-04-11T09:36:18.512Z,17.14
2024-04-11T09:41:26.300Z,17.54
2024-04-11T09:46:30.555Z,17.79
2024-04-11T09:51:36.368Z,17.97
2024-04-11T09:56:39.363Z,17.84
2024-04-11T10:01:42.310Z,17.64
2024-04-11T10:06:45.590Z,17.88
2024-04-11T10:11:49.057Z,18.11
2024-04-11T10:17:02.782Z,18.67
2024-04-11T10:22:06.950Z,18.63
2024-04-11T10:27:15.335Z,18.52
2024-04-11T10:32:28.854Z,18.63
2024-04-11T10:37:35.020Z,18.58
2024-04-11T10:42:39.598Z,18.84
2024-04-11T10:47:43.815Z,19.20
2024-04-11T10:52:48.722Z,19.23
2024-04-11T10:58:09.994Z,19.30
2024-04-11T11:03:15.852Z,19.02
2024-04-11T11:08:18.102Z,18.99
2024-04-11T11:13:20.231Z,18.62
2024-04-11T11:18:25.966Z,19.23
2024-04-11T11:23:35.352Z,18.98
2024-04-11T11:28:37.383Z,19.28
2024-04-11T11:33:43.158Z,19.35
2024-04-11T11:38:49.963Z,19.02
2024-04-11T11:43:55.709Z,19.41
2024-04-11T11:48:58.375Z,19.51
2024-04-11T11:54:13.907Z,19.81
2024-04-11T11:59:21.029Z,19.79
2024-04-11T12:04:23.684Z,19.56
2024-04-11T12:09:33.092Z,19.46
2024-04-11T12:14:36.393Z,19.68
2024-04-11T12:19:38.477Z,19.95
2024-04-11T12:24:41.110Z,19.60
2024-04-11T12:29:43.767Z,20.01
2024-04-11T12:34:47.366Z,19.78
2024-04-11T12:39:56.403Z,19.56
2024-04-11T12:45:02.198Z,19.95
2024-04-11T12:50:06.518Z,19.48
2024-04-11T12:55:09.681Z,19.39
2024-04-11T13:00:30.789Z,19.38
2024-04-11T13:05:42.338Z,19.29
2024-04-11T13:10:47.094Z,19.05
2024-04-11T13:15:50.616Z,19.03
2024-04-11T13:20:53.653Z,18.96
2024-04-11T13:25:59.348Z,19.09
2024-04-11T13:31:01.478Z,18.85
2024-04-11T13:36:13.697Z,18.90
2024-04-11T13:41:34.301Z,18.93
2024-04-11T13:46:37.059Z,18.89
2024-04-11T13:51:46.162Z,18.81
2024-04-11T13:57:01.093Z,18.76
2024-04-11T14:02:10.918Z,18.83
2024-04-11T14:07:12.881Z,18.72
2024-04-11T14:12:18.190Z,18.80
2024-04-11T14:17:28.480Z,18.52
2024-04-11T14:22:31.412Z,18.42
2024-04-11T14:27:33.382Z,18.59
2024-04-11T14:32:53.700Z,18.53
2024-04-11T14:38:09.021Z,18.78
2024-04-11T14:43:22.398Z,18.64
2024-04-11T14:48:35.267Z,18.41
2024-04-11T14:53:40.201Z,18.41
2024-04-11T14:58:49.177Z,18.81
2024-04-11T15:03:58.572Z,18.51
2024-04-11T15:09:22.006Z,18.65
2024-04-11T15:14:25.766Z,18.58
2024-04-11T15:19:28.519Z,18.53
2024-04-11T15:24:30.349Z,18.46
2024-04-11T15:29:49.115Z,18.18
2024-04-11T15:35:08.401Z,18.11
2024-04-11T15:40:23.689Z,18.06
2024-04-11T15:45:31.187Z,18.11
2024-04-11T15:50:37.817Z,17.97
2024-04-11T15:55:53.660Z,18.00
2024-04-11T16:00:55.626Z,18.07
2024-04-11T16:06:03.522Z,17.84
2024-04-11T16:11:05.619Z,17.83
2024-04-11T16:16:11.383Z,17.81
2024-04-11T16:21:16.647Z,17.63
2024-04-11T16:26:20.668Z,17.81
2024-04-11T16:31:29.090Z,17.62
2024-04-11T16:36:32.206Z,17.56
2024-04-11T16:41:40.398Z,17.50
2024-04-11T16:46:42.908Z,17.43
2024-04-11T16:51:44.930Z,17.55
2024-04-11T16:56:50.215Z,17.29
2024-04-11T17:01:52.563Z,17.10
2024-04-11T17:06:58.571Z,16.97
2024-04-11T17:12:05.132Z,16.89
2024-04-11T17:17:30.362Z,16.87
2024-04-11T17:22:51.227Z,16.52
2024-04-11T17:28:00.804Z,16.37
2024-04-11T17:33:11.907Z,16.22
2024-04-11T17:38:25.694Z,16.08
2024-04-11T17:43:29.225Z,16.01
2024-04-11T17:48:42.855Z,15.87
2024-04-11T17:53:48.766Z,15.75
2024-04-11T17:58:54.136Z,15.62
2024-04-11T18:03:59.878Z,15.66
2024-04-11T18:09:11.298Z,15.64
2024-04-11T18:14:14.644Z,15.45
2024-04-11T18:19:16.452Z,15.20
2024-04-11T18:24:20.313Z,14.96
2024-04-11T18:29:24.797Z,14.97
2024-04-11T18:34:27.036Z,15.06
2024-04-11T18:39:34.125Z,15.07
2024-04-11T18:44:51.769Z,14.78
2024-04-11T18:49:54.222Z,14.59
2024-04-11T18:54:56.885Z,14.51
2024-04-11T19:00:05.618Z,14.71
2024-04-11T19:05:12.387Z,14.36
2024-04-11T19:10:15.970Z,14.25
2024-04-11T19:15:19.811Z,14.20
2024-04-11T19:20:23.778Z,14.11
2024-04-11T19:25:29.464Z,14.17
2024-04-11T19:30:38.610Z,14.11
2024-04-11T19:35:50.764Z,14.23
2024-04-11T19:40:57.971Z,14.23
2024-04-11T19:46:09.607Z,14.09
2024-04-11T19:51:18.791Z,14.03
2024-04-11T19:56:25.559Z,13.87
2024-04-11T20:01:39.536Z,13.80
2024-04-11T20:06:48.514Z,13.91
2024-04-11T20:11:51.062Z,13.94
2024-04-11T20:16:59.204Z,13.81
2024-04-11T20:22:06.842Z,13.72
2024-04-11T20:27:10.747Z,13.61
2024-04-11T20:32:13.905Z,13.58
2024-04-11T20:37:19.043Z,13.68
2024-04-11T20:42:39.536Z,13.38
2024-04-11T20:47:56.288Z,13.18
2024-04-11T20:53:16.935Z,13.12
2024-04-11T20:58:37.630Z,13.06
2024-04-11T21:03:58.194Z,12.91
2024-04-11T21:09:19.134Z,12.69
2024-04-11T21:14:39.864Z,12.77
2024-04-11T21:20:00.441Z,12.41
2024-04-11T21:25:20.833Z,12.44
2024-04-11T21:30:41.518Z,12.33
2024-04-11T21:35:51.532Z,12.28
2024-04-11T21:41:12.489Z,12.05
2024-04-11T21:46:17.340Z,11.91
2024-04-11T21:51:20.851Z,11.79
2024-04-11T21:56:22.663Z,11.69
2024-04-11T22:01:44.925Z,11.71
2024-04-11T22:06:57.289Z,11.86
2024-04-11T22:12:02.457Z,11.69
2024-04-11T22:17:07.340Z,11.56
2024-04-11T22:22:14.627Z,11.66
2024-04-11T22:27:18.581Z,11.50
2024-04-11T22:32:22.891Z,11.43
2024-04-11T22:37:25.437Z,11.51
2024-04-11T22:42:34.831Z,11.47
2024-04-11T22:47:41.662Z,11.32
2024-04-11T22:52:44.201Z,11.11
2024-04-11T22:57:54.018Z,11.06
2024-04-11T23:03:11.234Z,11.30
2024-04-11T23:08:13.909Z,11.35
2024-04-11T23:13:17.727Z,11.18
2024-04-11T23:18:21.740Z,10.93
2024-04-11T23:23:27.590Z,10.76
2024-04-11T23:28:30.091Z,10.50
2024-04-11T23:33:34.687Z,10.57
2024-04-11T23:38:41.978Z,10.63
2024-04-11T23:43:48.122Z,10.27
2024-04-11T23:48:50.612Z,10.30
2024-04-11T23:53:54.565Z,10.57
2024-04-11T23:58:56.566Z,10.23
